Blythe Airport
KBLH : now visible

Airfield :











YOU CAN JOIN US ON...

 
LOGIN :

Register | Disclaimer

   EN    FR    IT 

 









Legend :    VFR   Marginal VFR   IFR   Intensive IFR   Very Intensive IFR
Visi :
Ceiling :
>= 8 km
>= 3000ft
5 to 8 km
1000 to 3000 ft
1500m to 5 km
500 to 1000 ft
800 to 1500m
200 to 500 ft
< 800m
< 200 ft
Symbols :   Thunderstorms  Fog  Heavy snow  Heavy precipitations  Wind > 20 kt







- Airport Elevation : 399 ft


KBLH - Blythe

CURRENT METAR :
  • 260352Z AUTO 21008KT 10SM CLR 37/19 A2980 RMK AO2 SLP083 T03720189

EXPIRED METARs :
  • 260252Z AUTO 22009KT 10SM CLR 38/18 A2978 RMK AO2 SLP077 T03830183 55001
  • 260152Z AUTO 21010KT 10SM CLR 39/18 A2977 RMK AO2 SLP074 T03940183

TAF KBLH
Valid from the 26 at 00:00 until the 27 at 00:00 UTC


252332Z 2600/2624 18012KT P6SM FEW060 SCT250
FM260200 22011KT P6SM SCT250
FM261000 17007KT P6SM BKN250
No reported NOTAMs for that airfield.



MET'MAP, your aeronautical weather chart ! - Copyright ORBIFLY December 2007 - Disclaimer

ORBIFLY MET'MAP TEAM :

Programming & Development : Alexandra Zaïnal
Concept & Development : Baudouin d'Aumeries
Co-Development & Prog : Marc-Olivier Méhu
Technical & hardware support : Manuel Goepfert

Contact : metmap@orbifly.com




SOURCES & CREDITS :

   NOAA       Earth
Advisory